EJU68FH LDDU-LIRN
Flight info
| Callsign | EJU68FH |
|---|---|
| Flight time | 1h 14m |
| Altitude | 33000 |
| Route | AMUGO DCT ORAKA DCT KATTI DCT SUXUB DCT ERIKA |
| Aircraft | A320/M-SDE2E3FGHIJ1RWXYZ/LB1 |
Departure
| Time | 2026-05-05 17:33 |
|---|---|
| Airport | Dubrovnik Ruđer Bošković Airport (LDDU) |
Arrival
| Time | 2026-05-05 18:47 |
|---|---|
| Airport | Naples International Airport (LIRN) |
| Time | Latitude | Longitude | Altitude | Speed | Heading |
|---|---|---|---|---|---|
| 2026-05-05 17:12 | 42.56128 | 18.26202 | 523 ft | 0 kts | 210° |
| 2026-05-05 17:26 | 42.56144 | 18.26220 | 523 ft | 4 kts | 257° |
| 2026-05-05 17:27 | 42.56143 | 18.26254 | 523 ft | 4 kts | 289° |
| 2026-05-05 17:27 | 42.56133 | 18.26283 | 522 ft | 1 kts | 298° |
| 2026-05-05 17:29 | 42.56135 | 18.26280 | 522 ft | 2 kts | 298° |
| 2026-05-05 17:29 | 42.56160 | 18.26242 | 523 ft | 6 kts | 315° |
| 2026-05-05 17:29 | 42.56189 | 18.26203 | 523 ft | 6 kts | 317° |
| 2026-05-05 17:30 | 42.56214 | 18.26153 | 524 ft | 9 kts | 300° |
| 2026-05-05 17:30 | 42.56258 | 18.26046 | 525 ft | 16 kts | 297° |
| 2026-05-05 17:30 | 42.56317 | 18.25894 | 526 ft | 21 kts | 297° |
| 2026-05-05 17:30 | 42.56381 | 18.25735 | 528 ft | 19 kts | 298° |
| 2026-05-05 17:31 | 42.56452 | 18.25558 | 529 ft | 24 kts | 298° |
| 2026-05-05 17:31 | 42.56530 | 18.25364 | 531 ft | 21 kts | 298° |
| 2026-05-05 17:31 | 42.56596 | 18.25196 | 533 ft | 19 kts | 297° |
| 2026-05-05 17:31 | 42.56667 | 18.25015 | 534 ft | 23 kts | 298° |
| 2026-05-05 17:32 | 42.56729 | 18.24858 | 536 ft | 21 kts | 298° |
| 2026-05-05 17:32 | 42.56797 | 18.24708 | 537 ft | 17 kts | 321° |
| 2026-05-05 17:32 | 42.56911 | 18.24706 | 538 ft | 18 kts | 41° |
| 2026-05-05 17:32 | 42.56922 | 18.24851 | 537 ft | 18 kts | 117° |
| 2026-05-05 17:33 | 42.56804 | 18.25150 | 533 ft | 81 kts | 118° |
| 2026-05-05 17:33 | 42.56362 | 18.26275 | 560 ft | 180 kts | 117° |
| 2026-05-05 17:33 | 42.55794 | 18.27694 | 2018 ft | 166 kts | 121° |
| 2026-05-05 17:33 | 42.55259 | 18.29014 | 3338 ft | 157 kts | 121° |
| 2026-05-05 17:34 | 42.54708 | 18.30400 | 4058 ft | 178 kts | 121° |
| 2026-05-05 17:34 | 42.54084 | 18.31972 | 4778 ft | 202 kts | 122° |
| 2026-05-05 17:34 | 42.53218 | 18.33546 | 5608 ft | 214 kts | 148° |
| 2026-05-05 17:34 | 42.51802 | 18.34031 | 6679 ft | 216 kts | 189° |
| 2026-05-05 17:35 | 42.50480 | 18.33088 | 7793 ft | 222 kts | 224° |
| 2026-05-05 17:35 | 42.49404 | 18.31587 | 9001 ft | 224 kts | 217° |
| 2026-05-05 17:35 | 42.47988 | 18.30689 | 10157 ft | 230 kts | 192° |
| 2026-05-05 17:35 | 42.46381 | 18.30422 | 11204 ft | 235 kts | 192° |
| 2026-05-05 17:36 | 42.44759 | 18.29946 | 12225 ft | 242 kts | 198° |
| 2026-05-05 17:36 | 42.43111 | 18.29350 | 13254 ft | 249 kts | 199° |
| 2026-05-05 17:36 | 42.41441 | 18.28640 | 14206 ft | 254 kts | 211° |
| 2026-05-05 17:36 | 42.40109 | 18.27133 | 15108 ft | 251 kts | 238° |
| 2026-05-05 17:37 | 42.39427 | 18.24953 | 15865 ft | 261 kts | 264° |
| 2026-05-05 17:37 | 42.39446 | 18.23300 | 16184 ft | 275 kts | 282° |
| 2026-05-05 17:37 | 42.40223 | 18.19826 | 16998 ft | 299 kts | 288° |
| 2026-05-05 17:37 | 42.40872 | 18.17120 | 17908 ft | 306 kts | 288° |
| 2026-05-05 17:38 | 42.41532 | 18.14362 | 18797 ft | 311 kts | 288° |
| 2026-05-05 17:38 | 42.42199 | 18.11556 | 19610 ft | 318 kts | 287° |
| 2026-05-05 17:38 | 42.42894 | 18.08605 | 19965 ft | 338 kts | 287° |
| 2026-05-05 17:38 | 42.43615 | 18.05526 | 20623 ft | 347 kts | 287° |
| 2026-05-05 17:39 | 42.44344 | 18.02385 | 21417 ft | 352 kts | 287° |
| 2026-05-05 17:39 | 42.45078 | 17.99205 | 22231 ft | 356 kts | 287° |
| 2026-05-05 17:39 | 42.45818 | 17.95993 | 23054 ft | 360 kts | 286° |
| 2026-05-05 17:39 | 42.46569 | 17.92737 | 23834 ft | 364 kts | 286° |
| 2026-05-05 17:40 | 42.47326 | 17.89451 | 24542 ft | 367 kts | 286° |
| 2026-05-05 17:40 | 42.48086 | 17.86140 | 25262 ft | 369 kts | 287° |
| 2026-05-05 17:40 | 42.48850 | 17.82809 | 25958 ft | 372 kts | 287° |
| 2026-05-05 17:40 | 42.49619 | 17.79452 | 26656 ft | 374 kts | 287° |
| 2026-05-05 17:41 | 42.50392 | 17.76078 | 27325 ft | 376 kts | 287° |
| 2026-05-05 17:41 | 42.51172 | 17.72679 | 27981 ft | 379 kts | 287° |
| 2026-05-05 17:41 | 42.51955 | 17.69260 | 28613 ft | 381 kts | 287° |
| 2026-05-05 17:41 | 42.52740 | 17.65812 | 29223 ft | 384 kts | 287° |
| 2026-05-05 17:42 | 42.53526 | 17.62346 | 29842 ft | 386 kts | 287° |
| 2026-05-05 17:42 | 42.54177 | 17.58810 | 30371 ft | 389 kts | 279° |
| 2026-05-05 17:42 | 42.54367 | 17.55134 | 30848 ft | 393 kts | 270° |
| 2026-05-05 17:42 | 42.54290 | 17.51415 | 31326 ft | 395 kts | 270° |
| 2026-05-05 17:43 | 42.54219 | 17.47695 | 31966 ft | 394 kts | 270° |
| 2026-05-05 17:43 | 42.54152 | 17.43997 | 32627 ft | 391 kts | 270° |
| 2026-05-05 17:43 | 42.54088 | 17.40311 | 32979 ft | 391 kts | 270° |
| 2026-05-05 17:44 | 42.53957 | 17.33119 | 33059 ft | 365 kts | 270° |
| 2026-05-05 17:44 | 42.53889 | 17.29738 | 33056 ft | 353 kts | 270° |
| 2026-05-05 17:44 | 42.53819 | 17.26436 | 33057 ft | 349 kts | 270° |
| 2026-05-05 17:45 | 42.53683 | 17.19884 | 33056 ft | 347 kts | 270° |
| 2026-05-05 17:45 | 42.53557 | 17.13342 | 33054 ft | 347 kts | 270° |
| 2026-05-05 17:46 | 42.53418 | 17.06816 | 33051 ft | 346 kts | 270° |
| 2026-05-05 17:46 | 42.53276 | 17.00295 | 33052 ft | 346 kts | 270° |
| 2026-05-05 17:47 | 42.53131 | 16.93785 | 33051 ft | 345 kts | 270° |
| 2026-05-05 17:47 | 42.52982 | 16.87297 | 33048 ft | 344 kts | 270° |
| 2026-05-05 17:48 | 42.52828 | 16.80808 | 33042 ft | 344 kts | 270° |
| 2026-05-05 17:48 | 42.52703 | 16.75372 | 33034 ft | 344 kts | 270° |
| 2026-05-05 17:49 | 42.52544 | 16.68888 | 33027 ft | 344 kts | 270° |
| 2026-05-05 17:49 | 42.52382 | 16.62412 | 33031 ft | 343 kts | 270° |
| 2026-05-05 17:50 | 42.52218 | 16.55951 | 33031 ft | 343 kts | 270° |
| 2026-05-05 17:50 | 42.52048 | 16.49499 | 33032 ft | 342 kts | 270° |
| 2026-05-05 17:51 | 42.51878 | 16.43051 | 33028 ft | 342 kts | 270° |
| 2026-05-05 17:51 | 42.51793 | 16.39888 | 33034 ft | 328 kts | 270° |
| 2026-05-05 17:51 | 42.51707 | 16.36870 | 33035 ft | 313 kts | 270° |
| 2026-05-05 17:51 | 42.51624 | 16.33994 | 33033 ft | 298 kts | 270° |
| 2026-05-05 17:52 | 42.51544 | 16.31256 | 33028 ft | 284 kts | 270° |
| 2026-05-05 17:52 | 42.51467 | 16.28642 | 33031 ft | 275 kts | 270° |
| 2026-05-05 17:52 | 42.51392 | 16.26063 | 33029 ft | 272 kts | 270° |
| 2026-05-05 17:52 | 42.51320 | 16.23500 | 33029 ft | 272 kts | 270° |
| 2026-05-05 17:53 | 42.51249 | 16.20944 | 33030 ft | 271 kts | 270° |
| 2026-05-05 17:53 | 42.51177 | 16.18391 | 33028 ft | 271 kts | 270° |
| 2026-05-05 17:53 | 42.51103 | 16.15838 | 33026 ft | 271 kts | 270° |
| 2026-05-05 17:53 | 42.51027 | 16.13286 | 33028 ft | 271 kts | 270° |
| 2026-05-05 17:54 | 42.50950 | 16.10734 | 33028 ft | 271 kts | 270° |
| 2026-05-05 17:54 | 42.50873 | 16.08184 | 33028 ft | 271 kts | 270° |
| 2026-05-05 17:54 | 42.50700 | 16.05636 | 33025 ft | 273 kts | 263° |
| 2026-05-05 17:54 | 42.50225 | 16.03131 | 33025 ft | 276 kts | 255° |
| 2026-05-05 17:55 | 42.49496 | 16.00706 | 33011 ft | 278 kts | 253° |
| 2026-05-05 17:55 | 42.48749 | 15.98298 | 33025 ft | 277 kts | 253° |
| 2026-05-05 17:55 | 42.48007 | 15.95892 | 33023 ft | 276 kts | 253° |
| 2026-05-05 17:55 | 42.47271 | 15.93492 | 33023 ft | 276 kts | 253° |
| 2026-05-05 17:56 | 42.46534 | 15.91095 | 33023 ft | 276 kts | 253° |
| 2026-05-05 17:56 | 42.45792 | 15.88690 | 33020 ft | 276 kts | 253° |
| 2026-05-05 17:56 | 42.45052 | 15.86297 | 33022 ft | 276 kts | 253° |
| 2026-05-05 17:56 | 42.44311 | 15.83898 | 33019 ft | 276 kts | 253° |
| 2026-05-05 17:57 | 42.43569 | 15.81499 | 33022 ft | 276 kts | 253° |
| 2026-05-05 17:57 | 42.42830 | 15.79104 | 33022 ft | 276 kts | 253° |
| 2026-05-05 17:57 | 42.42093 | 15.76708 | 33020 ft | 276 kts | 253° |
| 2026-05-05 17:57 | 42.41356 | 15.74310 | 33014 ft | 276 kts | 253° |
| 2026-05-05 17:58 | 42.40616 | 15.71917 | 33017 ft | 276 kts | 253° |
| 2026-05-05 17:58 | 42.39872 | 15.69522 | 33014 ft | 276 kts | 253° |
| 2026-05-05 17:58 | 42.39129 | 15.67138 | 33017 ft | 275 kts | 253° |
| 2026-05-05 17:58 | 42.38386 | 15.64752 | 33014 ft | 275 kts | 253° |
| 2026-05-05 17:59 | 42.37649 | 15.62381 | 33017 ft | 274 kts | 253° |
| 2026-05-05 17:59 | 42.36912 | 15.60011 | 33019 ft | 273 kts | 253° |
| 2026-05-05 17:59 | 42.36174 | 15.57644 | 33012 ft | 273 kts | 253° |
| 2026-05-05 17:59 | 42.35435 | 15.55276 | 33013 ft | 274 kts | 253° |
| 2026-05-05 18:00 | 42.34695 | 15.52902 | 33018 ft | 274 kts | 252° |
| 2026-05-05 18:00 | 42.33954 | 15.50528 | 33018 ft | 274 kts | 253° |
| 2026-05-05 18:00 | 42.33214 | 15.48158 | 33023 ft | 274 kts | 253° |
| 2026-05-05 18:00 | 42.32470 | 15.45785 | 33020 ft | 274 kts | 252° |
| 2026-05-05 18:01 | 42.31722 | 15.43412 | 33022 ft | 274 kts | 252° |
| 2026-05-05 18:01 | 42.30976 | 15.41042 | 33020 ft | 274 kts | 252° |
| 2026-05-05 18:01 | 42.30232 | 15.38669 | 33016 ft | 274 kts | 252° |
| 2026-05-05 18:01 | 42.29488 | 15.36302 | 33018 ft | 274 kts | 252° |
| 2026-05-05 18:02 | 42.28741 | 15.33924 | 33017 ft | 274 kts | 252° |
| 2026-05-05 18:02 | 42.27998 | 15.31557 | 33012 ft | 274 kts | 252° |
| 2026-05-05 18:02 | 42.27253 | 15.29185 | 33018 ft | 274 kts | 252° |
| 2026-05-05 18:02 | 42.26507 | 15.26825 | 33013 ft | 272 kts | 252° |
| 2026-05-05 18:03 | 42.25765 | 15.24480 | 33013 ft | 271 kts | 252° |
| 2026-05-05 18:03 | 42.25025 | 15.22145 | 33016 ft | 271 kts | 252° |
| 2026-05-05 18:03 | 42.24286 | 15.19810 | 33017 ft | 271 kts | 252° |
| 2026-05-05 18:03 | 42.23548 | 15.17476 | 33010 ft | 271 kts | 252° |
| 2026-05-05 18:04 | 42.22809 | 15.15141 | 33014 ft | 270 kts | 252° |
| 2026-05-05 18:04 | 42.22070 | 15.12804 | 33006 ft | 270 kts | 252° |
| 2026-05-05 18:04 | 42.21332 | 15.10470 | 33010 ft | 270 kts | 252° |
| 2026-05-05 18:04 | 42.20595 | 15.08140 | 33008 ft | 271 kts | 252° |
| 2026-05-05 18:05 | 42.19854 | 15.05805 | 33007 ft | 271 kts | 252° |
| 2026-05-05 18:05 | 42.19111 | 15.03467 | 33004 ft | 271 kts | 252° |
| 2026-05-05 18:05 | 42.18369 | 15.01137 | 33011 ft | 271 kts | 252° |
| 2026-05-05 18:05 | 42.17623 | 14.98804 | 33007 ft | 271 kts | 251° |
| 2026-05-05 18:06 | 42.16877 | 14.96475 | 33007 ft | 271 kts | 251° |
| 2026-05-05 18:06 | 42.16375 | 14.94906 | 33012 ft | 271 kts | 252° |
| 2026-05-05 18:06 | 42.15388 | 14.91818 | 33023 ft | 270 kts | 251° |
| 2026-05-05 18:06 | 42.14644 | 14.89502 | 33010 ft | 268 kts | 251° |
| 2026-05-05 18:07 | 42.13905 | 14.87198 | 33007 ft | 268 kts | 251° |
| 2026-05-05 18:07 | 42.13166 | 14.84897 | 33007 ft | 267 kts | 251° |
| 2026-05-05 18:07 | 42.12427 | 14.82599 | 33008 ft | 267 kts | 251° |
| 2026-05-05 18:07 | 42.11690 | 14.80301 | 33010 ft | 267 kts | 251° |
| 2026-05-05 18:08 | 42.10954 | 14.78008 | 33008 ft | 267 kts | 251° |
| 2026-05-05 18:08 | 42.10219 | 14.75713 | 33010 ft | 267 kts | 251° |
| 2026-05-05 18:08 | 42.09482 | 14.73416 | 33012 ft | 267 kts | 251° |
| 2026-05-05 18:08 | 42.08743 | 14.71118 | 33009 ft | 267 kts | 251° |
| 2026-05-05 18:09 | 42.07996 | 14.68793 | 33009 ft | 267 kts | 251° |
| 2026-05-05 18:09 | 42.07266 | 14.66525 | 33008 ft | 267 kts | 251° |
| 2026-05-05 18:09 | 42.06523 | 14.64229 | 33009 ft | 268 kts | 251° |
| 2026-05-05 18:09 | 42.05779 | 14.61936 | 33012 ft | 267 kts | 251° |
| 2026-05-05 18:10 | 42.05037 | 14.59642 | 33013 ft | 267 kts | 251° |
| 2026-05-05 18:10 | 42.04295 | 14.57349 | 33015 ft | 267 kts | 251° |
| 2026-05-05 18:10 | 42.03551 | 14.55057 | 33017 ft | 267 kts | 251° |
| 2026-05-05 18:10 | 42.02806 | 14.52759 | 33018 ft | 267 kts | 251° |
| 2026-05-05 18:11 | 42.02052 | 14.50437 | 33019 ft | 267 kts | 251° |
| 2026-05-05 18:11 | 42.01318 | 14.48176 | 33026 ft | 267 kts | 251° |
| 2026-05-05 18:11 | 42.00576 | 14.45887 | 33026 ft | 268 kts | 251° |
| 2026-05-05 18:11 | 41.99831 | 14.43595 | 33020 ft | 267 kts | 251° |
| 2026-05-05 18:12 | 41.99085 | 14.41301 | 33020 ft | 268 kts | 251° |
| 2026-05-05 18:12 | 41.98337 | 14.39012 | 33023 ft | 268 kts | 251° |
| 2026-05-05 18:12 | 41.97589 | 14.36718 | 33021 ft | 268 kts | 251° |
| 2026-05-05 18:12 | 41.96845 | 14.34427 | 33024 ft | 268 kts | 251° |
| 2026-05-05 18:13 | 41.96099 | 14.32135 | 33028 ft | 268 kts | 251° |
| 2026-05-05 18:13 | 41.95350 | 14.29842 | 32900 ft | 271 kts | 251° |
| 2026-05-05 18:13 | 41.94596 | 14.27542 | 32695 ft | 268 kts | 251° |
| 2026-05-05 18:13 | 41.93844 | 14.25255 | 32373 ft | 267 kts | 251° |
| 2026-05-05 18:14 | 41.93095 | 14.22981 | 32016 ft | 265 kts | 251° |
| 2026-05-05 18:14 | 41.92352 | 14.20722 | 31653 ft | 264 kts | 250° |
| 2026-05-05 18:14 | 41.91609 | 14.18463 | 31270 ft | 264 kts | 250° |
| 2026-05-05 18:14 | 41.90869 | 14.16214 | 30890 ft | 263 kts | 250° |
| 2026-05-05 18:15 | 41.90118 | 14.13970 | 30514 ft | 265 kts | 247° |
| 2026-05-05 18:15 | 41.89131 | 14.11868 | 30122 ft | 270 kts | 237° |
| 2026-05-05 18:15 | 41.87820 | 14.10017 | 29689 ft | 277 kts | 227° |
| 2026-05-05 18:15 | 41.86229 | 14.08523 | 29291 ft | 282 kts | 216° |
| 2026-05-05 18:16 | 41.84410 | 14.07457 | 28884 ft | 289 kts | 205° |
| 2026-05-05 18:16 | 41.82421 | 14.06888 | 28496 ft | 295 kts | 195° |
| 2026-05-05 18:16 | 41.80396 | 14.06520 | 28098 ft | 294 kts | 195° |
| 2026-05-05 18:16 | 41.78367 | 14.06139 | 27677 ft | 296 kts | 195° |
| 2026-05-05 18:17 | 41.76327 | 14.05753 | 27245 ft | 295 kts | 195° |
| 2026-05-05 18:17 | 41.74293 | 14.05369 | 26812 ft | 296 kts | 195° |
| 2026-05-05 18:17 | 41.72254 | 14.04987 | 26383 ft | 297 kts | 194° |
| 2026-05-05 18:17 | 41.70203 | 14.04600 | 25936 ft | 298 kts | 194° |
| 2026-05-05 18:18 | 41.68134 | 14.04209 | 25457 ft | 302 kts | 193° |
| 2026-05-05 18:18 | 41.66046 | 14.03815 | 24982 ft | 305 kts | 193° |
| 2026-05-05 18:18 | 41.63931 | 14.03416 | 24469 ft | 308 kts | 192° |
| 2026-05-05 18:18 | 41.61762 | 14.03008 | 23947 ft | 313 kts | 192° |
| 2026-05-05 18:19 | 41.59602 | 14.02606 | 23443 ft | 314 kts | 191° |
| 2026-05-05 18:19 | 41.57435 | 14.02204 | 22940 ft | 314 kts | 191° |
| 2026-05-05 18:19 | 41.55267 | 14.01805 | 22474 ft | 314 kts | 191° |
| 2026-05-05 18:19 | 41.53106 | 14.01406 | 22006 ft | 314 kts | 192° |
| 2026-05-05 18:20 | 41.50944 | 14.01005 | 21557 ft | 313 kts | 192° |
| 2026-05-05 18:20 | 41.49519 | 14.00738 | 21246 ft | 312 kts | 192° |
| 2026-05-05 18:20 | 41.46641 | 14.00202 | 20635 ft | 312 kts | 191° |
| 2026-05-05 18:20 | 41.44518 | 13.99809 | 20191 ft | 312 kts | 192° |
| 2026-05-05 18:21 | 41.42335 | 13.99405 | 19739 ft | 313 kts | 192° |
| 2026-05-05 18:21 | 41.40173 | 13.99005 | 19284 ft | 314 kts | 192° |
| 2026-05-05 18:21 | 41.38009 | 13.98603 | 18833 ft | 315 kts | 192° |
| 2026-05-05 18:21 | 41.35841 | 13.98198 | 18370 ft | 315 kts | 192° |
| 2026-05-05 18:22 | 41.33662 | 13.97793 | 17872 ft | 315 kts | 192° |
| 2026-05-05 18:22 | 41.31494 | 13.97432 | 17429 ft | 314 kts | 187° |
| 2026-05-05 18:22 | 41.29304 | 13.97587 | 16982 ft | 317 kts | 173° |
| 2026-05-05 18:22 | 41.27190 | 13.98399 | 16650 ft | 317 kts | 161° |
| 2026-05-05 18:23 | 41.25186 | 13.99485 | 16324 ft | 313 kts | 161° |
| 2026-05-05 18:23 | 41.23154 | 14.00581 | 15967 ft | 310 kts | 161° |
| 2026-05-05 18:23 | 41.21158 | 14.01649 | 15636 ft | 308 kts | 161° |
| 2026-05-05 18:23 | 41.19179 | 14.02707 | 15289 ft | 306 kts | 161° |
| 2026-05-05 18:24 | 41.17214 | 14.03754 | 14958 ft | 303 kts | 161° |
| 2026-05-05 18:24 | 41.15258 | 14.04795 | 14631 ft | 302 kts | 161° |
| 2026-05-05 18:24 | 41.13317 | 14.05828 | 14294 ft | 300 kts | 161° |
| 2026-05-05 18:24 | 41.11386 | 14.06857 | 13952 ft | 298 kts | 161° |
| 2026-05-05 18:25 | 41.09463 | 14.07881 | 13614 ft | 297 kts | 161° |
| 2026-05-05 18:25 | 41.08842 | 14.08211 | 13498 ft | 296 kts | 161° |
| 2026-05-05 18:25 | 41.06304 | 14.09564 | 13058 ft | 292 kts | 160° |
| 2026-05-05 18:25 | 41.04433 | 14.10564 | 12739 ft | 289 kts | 161° |
| 2026-05-05 18:26 | 41.02577 | 14.11554 | 12427 ft | 286 kts | 161° |
| 2026-05-05 18:26 | 41.00737 | 14.12534 | 12114 ft | 283 kts | 161° |
| 2026-05-05 18:26 | 40.98916 | 14.13501 | 11802 ft | 280 kts | 161° |
| 2026-05-05 18:26 | 40.97084 | 14.14289 | 11495 ft | 275 kts | 173° |
| 2026-05-05 18:27 | 40.95210 | 14.14305 | 11199 ft | 267 kts | 193° |
| 2026-05-05 18:27 | 40.93487 | 14.13544 | 10950 ft | 257 kts | 211° |
| 2026-05-05 18:27 | 40.92085 | 14.12176 | 10774 ft | 246 kts | 228° |
| 2026-05-05 18:27 | 40.91053 | 14.10423 | 10594 ft | 238 kts | 237° |
| 2026-05-05 18:28 | 40.89209 | 14.06941 | 10242 ft | 224 kts | 237° |
| 2026-05-05 18:28 | 40.88326 | 14.05283 | 10074 ft | 217 kts | 237° |
| 2026-05-05 18:28 | 40.87470 | 14.03676 | 9900 ft | 210 kts | 237° |
| 2026-05-05 18:29 | 40.86650 | 14.02136 | 9801 ft | 200 kts | 237° |
| 2026-05-05 18:29 | 40.85865 | 14.00663 | 9716 ft | 194 kts | 237° |
| 2026-05-05 18:29 | 40.85090 | 13.99207 | 9622 ft | 193 kts | 237° |
| 2026-05-05 18:29 | 40.84320 | 13.97757 | 9534 ft | 193 kts | 237° |
| 2026-05-05 18:30 | 40.83551 | 13.96312 | 9423 ft | 192 kts | 237° |
| 2026-05-05 18:30 | 40.82785 | 13.94884 | 9301 ft | 191 kts | 237° |
| 2026-05-05 18:30 | 40.82016 | 13.93456 | 9184 ft | 190 kts | 237° |
| 2026-05-05 18:30 | 40.81250 | 13.92032 | 9060 ft | 190 kts | 237° |
| 2026-05-05 18:31 | 40.80488 | 13.90612 | 8940 ft | 190 kts | 237° |
| 2026-05-05 18:31 | 40.79726 | 13.89192 | 8815 ft | 189 kts | 237° |
| 2026-05-05 18:31 | 40.78966 | 13.87775 | 8703 ft | 189 kts | 237° |
| 2026-05-05 18:31 | 40.78206 | 13.86359 | 8584 ft | 189 kts | 237° |
| 2026-05-05 18:32 | 40.77439 | 13.84931 | 8436 ft | 189 kts | 236° |
| 2026-05-05 18:32 | 40.76684 | 13.83521 | 8286 ft | 188 kts | 236° |
| 2026-05-05 18:32 | 40.75933 | 13.82115 | 8159 ft | 187 kts | 237° |
| 2026-05-05 18:32 | 40.75192 | 13.80728 | 8040 ft | 187 kts | 237° |
| 2026-05-05 18:33 | 40.74443 | 13.79329 | 7923 ft | 187 kts | 236° |
| 2026-05-05 18:33 | 40.73684 | 13.77917 | 7794 ft | 186 kts | 236° |
| 2026-05-05 18:33 | 40.72935 | 13.76526 | 7663 ft | 186 kts | 237° |
| 2026-05-05 18:33 | 40.72187 | 13.75139 | 7542 ft | 185 kts | 237° |
| 2026-05-05 18:34 | 40.71449 | 13.73772 | 7415 ft | 185 kts | 237° |
| 2026-05-05 18:34 | 40.70594 | 13.72483 | 7295 ft | 187 kts | 218° |
| 2026-05-05 18:34 | 40.69391 | 13.71856 | 7158 ft | 188 kts | 189° |
| 2026-05-05 18:34 | 40.68104 | 13.72095 | 7032 ft | 189 kts | 159° |
| 2026-05-05 18:35 | 40.67017 | 13.73018 | 6896 ft | 188 kts | 148° |
| 2026-05-05 18:35 | 40.65937 | 13.74026 | 6757 ft | 187 kts | 148° |
| 2026-05-05 18:35 | 40.64885 | 13.75000 | 6633 ft | 187 kts | 148° |
| 2026-05-05 18:35 | 40.63822 | 13.75986 | 6492 ft | 187 kts | 146° |
| 2026-05-05 18:36 | 40.62920 | 13.77398 | 6375 ft | 225 kts | 117° |
| 2026-05-05 18:36 | 40.62660 | 13.79452 | 6184 ft | 229 kts | 81° |
| 2026-05-05 18:36 | 40.63243 | 13.81326 | 6030 ft | 219 kts | 53° |
| 2026-05-05 18:36 | 40.64117 | 13.82927 | 5893 ft | 212 kts | 52° |
| 2026-05-05 18:37 | 40.64962 | 13.84487 | 5740 ft | 206 kts | 52° |
| 2026-05-05 18:37 | 40.65893 | 13.85873 | 5602 ft | 199 kts | 45° |
| 2026-05-05 18:37 | 40.66772 | 13.87257 | 5473 ft | 195 kts | 51° |
| 2026-05-05 18:37 | 40.67557 | 13.88675 | 5356 ft | 189 kts | 52° |
| 2026-05-05 18:38 | 40.68303 | 13.90073 | 5243 ft | 184 kts | 53° |
| 2026-05-05 18:38 | 40.69031 | 13.91450 | 5129 ft | 183 kts | 53° |
| 2026-05-05 18:38 | 40.69756 | 13.92825 | 5016 ft | 182 kts | 53° |
| 2026-05-05 18:38 | 40.70477 | 13.94194 | 4905 ft | 181 kts | 53° |
| 2026-05-05 18:39 | 40.71195 | 13.95559 | 4799 ft | 181 kts | 54° |
| 2026-05-05 18:39 | 40.71912 | 13.96920 | 4671 ft | 181 kts | 55° |
| 2026-05-05 18:39 | 40.72628 | 13.98282 | 4557 ft | 181 kts | 55° |
| 2026-05-05 18:39 | 40.73342 | 13.99641 | 4441 ft | 180 kts | 55° |
| 2026-05-05 18:40 | 40.74055 | 14.00998 | 4335 ft | 179 kts | 55° |
| 2026-05-05 18:40 | 40.74741 | 14.02304 | 4247 ft | 169 kts | 56° |
| 2026-05-05 18:40 | 40.75395 | 14.03550 | 4116 ft | 161 kts | 56° |
| 2026-05-05 18:40 | 40.76019 | 14.04738 | 4005 ft | 153 kts | 56° |
| 2026-05-05 18:41 | 40.76611 | 14.05867 | 3900 ft | 146 kts | 56° |
| 2026-05-05 18:41 | 40.77177 | 14.06948 | 3792 ft | 140 kts | 56° |
| 2026-05-05 18:41 | 40.77723 | 14.07988 | 3694 ft | 137 kts | 56° |
| 2026-05-05 18:41 | 40.78262 | 14.09017 | 3588 ft | 136 kts | 56° |
| 2026-05-05 18:42 | 40.78800 | 14.10044 | 3489 ft | 136 kts | 57° |
| 2026-05-05 18:42 | 40.79336 | 14.11068 | 3394 ft | 136 kts | 57° |
| 2026-05-05 18:42 | 40.79872 | 14.12092 | 3298 ft | 135 kts | 57° |
| 2026-05-05 18:42 | 40.80406 | 14.13113 | 3210 ft | 134 kts | 57° |
| 2026-05-05 18:43 | 40.80939 | 14.14132 | 3136 ft | 135 kts | 58° |
| 2026-05-05 18:43 | 40.81473 | 14.15153 | 2979 ft | 135 kts | 58° |
| 2026-05-05 18:43 | 40.82004 | 14.16168 | 2798 ft | 135 kts | 58° |
| 2026-05-05 18:43 | 40.82543 | 14.17200 | 2590 ft | 137 kts | 58° |
| 2026-05-05 18:44 | 40.83078 | 14.18223 | 2392 ft | 135 kts | 58° |
| 2026-05-05 18:44 | 40.83615 | 14.19251 | 2186 ft | 135 kts | 58° |
| 2026-05-05 18:44 | 40.84134 | 14.20244 | 1975 ft | 128 kts | 58° |
| 2026-05-05 18:44 | 40.84633 | 14.21201 | 1768 ft | 125 kts | 58° |
| 2026-05-05 18:45 | 40.85124 | 14.22142 | 1576 ft | 123 kts | 56° |
| 2026-05-05 18:45 | 40.85607 | 14.23072 | 1381 ft | 122 kts | 57° |
| 2026-05-05 18:45 | 40.86089 | 14.23988 | 1158 ft | 121 kts | 56° |
| 2026-05-05 18:45 | 40.86566 | 14.24900 | 949 ft | 120 kts | 54° |
| 2026-05-05 18:46 | 40.87033 | 14.25799 | 735 ft | 118 kts | 55° |
| 2026-05-05 18:46 | 40.87486 | 14.26702 | 569 ft | 118 kts | 55° |
| 2026-05-05 18:46 | 40.87917 | 14.27621 | 401 ft | 118 kts | 57° |
| 2026-05-05 18:46 | 40.88342 | 14.28523 | 292 ft | 111 kts | 57° |
| 2026-05-05 18:47 | 40.88679 | 14.29229 | 264 ft | 67 kts | 59° |
| 2026-05-05 18:47 | 40.88880 | 14.29661 | 252 ft | 51 kts | 57° |
| 2026-05-05 18:47 | 40.89052 | 14.30026 | 240 ft | 32 kts | 58° |
| 2026-05-05 18:47 | 40.89039 | 14.30133 | 238 ft | 14 kts | 161° |
| 2026-05-05 18:48 | 40.88947 | 14.30171 | 239 ft | 8 kts | 209° |
| 2026-05-05 18:48 | 40.88908 | 14.30098 | 242 ft | 14 kts | 232° |
| 2026-05-05 18:48 | 40.88835 | 14.29973 | 246 ft | 20 kts | 232° |
| 2026-05-05 18:48 | 40.88739 | 14.29806 | 252 ft | 25 kts | 232° |
| 2026-05-05 18:49 | 40.88639 | 14.29632 | 257 ft | 26 kts | 232° |
| 2026-05-05 18:49 | 40.88550 | 14.29479 | 261 ft | 18 kts | 232° |
| 2026-05-05 18:49 | 40.88466 | 14.29334 | 265 ft | 23 kts | 233° |
| 2026-05-05 18:49 | 40.88378 | 14.29181 | 269 ft | 19 kts | 232° |
| 2026-05-05 18:50 | 40.88287 | 14.29024 | 275 ft | 21 kts | 232° |
| 2026-05-05 18:50 | 40.88202 | 14.28877 | 277 ft | 18 kts | 232° |
| 2026-05-05 18:50 | 40.88120 | 14.28735 | 281 ft | 20 kts | 232° |
| 2026-05-05 18:50 | 40.88061 | 14.28601 | 284 ft | 10 kts | 291° |
| 2026-05-05 18:51 | 40.88119 | 14.28547 | 284 ft | 0 kts | 328° |